Terminal Aerodrome Forecast
Issued by NWS

Home | Current Version | Previous Version | Text Only | Print | Product List | Glossary On
Versions: 1 2 3 4 5 6 7 8 9 10 11 12 13 14 15 16 17 18 19 20 21 22 23 24 25 26
000
FTUS43 KLSX 230655 AAA
TAFUIN
TAF AMD
KUIN 230655Z 2307/2406 31006KT 3SM BR SKC
      TEMPO 2307/2311 1SM BR
     FM231100 36006KT P6SM BKN009
     FM231500 05010KT P6SM BKN040
     FM232100 09012G20KT P6SM VCSH OVC020
     FM240100 10011G19KT P6SM OVC015=

USA.gov is the U.S. government's official web portal to all federal, state and local government web resources and services.